Las Vegas, Nevada
Current Conditions -  °F | °C
As of 9:56 AM on Friday 19 Dec 2014 (Local Time) from KLAS Reporting Station
Broken Clouds Broken Clouds  
Wind Chill: 49°   Ceiling: 25000
Heat Index: 49°   Visibility: 10mi
Dew Point: 37°   Wind: 3mph
Humidity: 64%   Direction: 190°S
Pressure: 30.23"   Gusts: NA
Location:  36.17°N, 115.13°W
Report Text: KLAS 191756Z 19003KT 10SM BKN250 09/03 A3023 RMK AO2 SLP236 T00940028 10094 20044 50008
Loading
Personal Weather Stations






























Interactive Weather Map New forecast layout! Learn more

10-Day Weather Forecast

Advertisements
Track Severe Weather on mobile